Time;durP1;ratioP1;P1;durP2;ratioP2;P2;SDS_P1;SDS_P2;PMS_P1;PMS_P2;Temp;Humidity;BMP_temperature;BMP_pressure;BME280_temperature;BME280_humidity;BME280_pressure;Samples;Min_cycle;Max_cycle;Signal;HPM_P1;HPM_P2
2022/11/27 00:01:23;;;;;;;52.97;22.53;;;;;;;;;;5012485;28;20025;-80
2022/11/27 00:03:48;;;;;;;35.30;14.53;;;;;;;;;;5030502;28;20053;-79
2022/11/27 00:06:17;;;;;;;32.33;14.50;;;;;;;;;;5029754;28;20123;-79
2022/11/27 00:08:44;;;;;;;29.00;14.00;;;;;;;;;;5028229;28;20116;-78
2022/11/27 00:11:15;;;;;;;35.40;14.43;;;;;;;;;;5029301;28;20462;-79
2022/11/27 00:13:41;;;;;;;26.38;12.60;;;;;;;;;;5011513;28;20049;-80
2022/11/27 00:16:08;;;;;;;29.97;14.60;;;;;;;;;;5012811;28;20381;-79
2022/11/27 00:18:33;;;;;;;33.03;14.23;;;;;;;;;;5029784;28;20025;-79
2022/11/27 00:21:11;;;;;;;33.87;15.23;;;;;;;;;;5029768;28;20096;-79
2022/11/27 00:23:38;;;;;;;33.43;14.37;;;;;;;;;;5011598;28;20032;-79
2022/11/27 00:26:05;;;;;;;34.87;15.63;;;;;;;;;;5011699;28;20031;-79
2022/11/27 00:28:30;;;;;;;40.30;16.40;;;;;;;;;;5029017;28;20041;-78
2022/11/27 00:31:00;;;;;;;38.53;15.23;;;;;;;;;;5011344;28;20017;-79
2022/11/27 00:33:28;;;;;;;32.60;15.77;;;;;;;;;;5029671;28;20043;-79
2022/11/27 00:35:54;;;;;;;42.53;15.87;;;;;;;;;;5011533;28;20029;-79
2022/11/27 00:38:20;;;;;;;38.87;15.27;;;;;;;;;;5029314;28;20036;-79
2022/11/27 00:40:48;;;;;;;35.83;14.80;;;;;;;;;;5028796;28;20026;-79
2022/11/27 00:43:13;;;;;;;30.90;15.93;;;;;;;;;;5029946;28;20021;-80
2022/11/27 00:45:39;;;;;;;35.83;16.00;;;;;;;;;;5011863;28;20354;-79
2022/11/27 00:48:05;;;;;;;37.60;15.10;;;;;;;;;;5012248;28;20025;-79
2022/11/27 00:50:31;;;;;;;36.53;15.10;;;;;;;;;;5014493;28;20427;-79
2022/11/27 00:52:59;;;;;;;33.53;14.97;;;;;;;;;;5015591;28;20025;-80
2022/11/27 00:55:27;;;;;;;35.50;15.40;;;;;;;;;;5015870;28;20120;-79
2022/11/27 00:57:52;;;;;;;36.53;15.07;;;;;;;;;;5016077;28;20512;-78
2022/11/27 01:00:18;;;;;;;31.80;14.47;;;;;;;;;;5015507;28;20051;-79
2022/11/27 01:02:47;;;;;;;36.37;16.43;;;;;;;;;;5033487;28;20029;-79
2022/11/27 01:05:12;;;;;;;34.47;15.60;;;;;;;;;;5032954;28;20421;-79
2022/11/27 01:07:38;;;;;;;32.93;13.23;;;;;;;;;;5015361;28;20029;-79
2022/11/27 01:10:04;;;;;;;36.10;15.07;;;;;;;;;;5032839;28;20022;-78
2022/11/27 01:12:38;;;;;;;30.53;13.67;;;;;;;;;;5015643;28;20696;-80
2022/11/27 01:15:05;;;;;;;29.20;15.30;;;;;;;;;;5032036;28;20026;-80
2022/11/27 01:17:31;;;;;;;37.87;15.63;;;;;;;;;;5033197;28;20713;-80
2022/11/27 01:19:56;;;;;;;39.03;17.40;;;;;;;;;;5014897;28;20034;-78
2022/11/27 01:22:24;;;;;;;32.90;14.90;;;;;;;;;;5031243;28;20024;-79
2022/11/27 01:24:50;;;;;;;35.43;15.73;;;;;;;;;;5014975;28;20026;-78
2022/11/27 01:27:15;;;;;;;28.10;14.53;;;;;;;;;;5016016;28;20080;-79
2022/11/27 01:29:41;;;;;;;31.20;14.13;;;;;;;;;;5015173;28;20032;-77
2022/11/27 01:32:06;;;;;;;31.07;14.43;;;;;;;;;;5016967;28;20025;-80
2022/11/27 01:34:32;;;;;;;32.67;13.60;;;;;;;;;;5017134;28;20087;-78
2022/11/27 01:36:57;;;;;;;30.73;14.70;;;;;;;;;;5036095;28;20025;-80
2022/11/27 01:39:26;;;;;;;31.00;13.83;;;;;;;;;;5034556;28;20438;-80
2022/11/27 01:41:51;;;;;;;32.37;15.97;;;;;;;;;;5015010;28;20031;-79
2022/11/27 01:44:22;;;;;;;28.43;13.60;;;;;;;;;;5015136;28;20033;-79
2022/11/27 01:46:58;;;;;;;34.70;15.73;;;;;;;;;;5014884;28;20122;-78
2022/11/27 01:49:37;;;;;;;35.07;14.80;;;;;;;;;;5015027;28;20033;-79
2022/11/27 01:52:20;;;;;;;31.93;14.93;;;;;;;;;;5015006;28;20029;-79
2022/11/27 01:55:00;;;;;;;38.10;15.87;;;;;;;;;;5015056;28;20549;-81
2022/11/27 01:57:37;;;;;;;35.00;15.97;;;;;;;;;;5015060;28;20116;-80
2022/11/27 02:00:05;;;;;;;33.83;15.40;;;;;;;;;;5014356;28;20032;-79
2022/11/27 02:02:30;;;;;;;33.90;14.73;;;;;;;;;;5031501;28;20397;-78
2022/11/27 02:04:56;;;;;;;35.00;14.43;;;;;;;;;;5014572;28;20049;-80
2022/11/27 02:07:21;;;;;;;30.43;14.67;;;;;;;;;;5033103;28;20025;-78
2022/11/27 02:09:47;;;;;;;30.17;16.30;;;;;;;;;;5034570;28;20154;-78
2022/11/27 02:12:27;;;;;;;31.50;14.93;;;;;;;;;;5017043;28;20444;-79
2022/11/27 02:15:17;;;;;;;39.77;16.03;;;;;;;;;;5015154;28;20029;-79
2022/11/27 02:17:54;;;;;;;31.97;15.33;;;;;;;;;;5032629;28;20390;-79
2022/11/27 02:20:48;;;;;;;37.57;16.30;;;;;;;;;;5014141;28;20033;-78
2022/11/27 02:23:29;;;;;;;34.53;15.33;;;;;;;;;;5032066;28;20036;-79
2022/11/27 02:26:06;;;;;;;27.80;14.80;;;;;;;;;;5013768;28;20045;-78
2022/11/27 02:28:53;;;;;;;39.53;17.00;;;;;;;;;;5013858;28;20461;-79
2022/11/27 02:31:29;;;;;;;37.40;15.50;;;;;;;;;;5013509;28;20013;-79
2022/11/27 02:34:03;;;;;;;33.57;16.10;;;;;;;;;;5013588;28;20021;-79
2022/11/27 02:36:30;;;;;;;32.70;14.87;;;;;;;;;;5013607;28;20025;-80
2022/11/27 02:39:03;;;;;;;31.93;15.50;;;;;;;;;;5013665;28;20032;-79
2022/11/27 02:41:34;;;;;;;38.07;15.63;;;;;;;;;;5013666;28;20029;-79
2022/11/27 02:44:00;;;;;;;36.37;16.13;;;;;;;;;;5031582;28;20064;-78
2022/11/27 02:46:27;;;;;;;31.87;13.83;;;;;;;;;;5013553;28;20026;-79
2022/11/27 02:49:00;;;;;;;38.37;15.70;;;;;;;;;;5013265;28;20033;-79
2022/11/27 02:51:34;;;;;;;35.80;14.87;;;;;;;;;;5013692;28;20060;-78
2022/11/27 02:54:04;;;;;;;39.97;16.10;;;;;;;;;;5031614;28;20040;-78
2022/11/27 02:56:31;;;;;;;32.53;15.60;;;;;;;;;;5013969;28;20438;-79
2022/11/27 02:59:02;;;;;;;36.30;15.80;;;;;;;;;;5013563;28;20527;-78
2022/11/27 03:01:32;;;;;;;32.85;16.02;;;;;;;;;;5013610;28;20478;-79
2022/11/27 03:04:00;;;;;;;33.40;14.87;;;;;;;;;;5029838;28;20072;-79
2022/11/27 03:06:30;;;;;;;41.90;15.77;;;;;;;;;;5031320;28;20049;-79
2022/11/27 03:08:58;;;;;;;38.53;15.90;;;;;;;;;;5013326;28;20065;-78
2022/11/27 03:11:29;;;;;;;33.90;14.07;;;;;;;;;;5013107;28;20036;-79
2022/11/27 03:14:05;;;;;;;32.17;15.07;;;;;;;;;;5012600;28;20025;-78
2022/11/27 03:16:42;;;;;;;43.60;14.87;;;;;;;;;;5013343;28;20060;-79
2022/11/27 03:19:20;;;;;;;35.10;15.47;;;;;;;;;;5012826;28;20029;-79
2022/11/27 03:21:57;;;;;;;28.83;14.00;;;;;;;;;;5013225;28;20029;-79
2022/11/27 03:24:23;;;;;;;32.50;14.27;;;;;;;;;;5031290;28;20033;-78
2022/11/27 03:26:50;;;;;;;32.13;15.47;;;;;;;;;;5013103;28;20029;-78
2022/11/27 03:29:20;;;;;;;30.47;14.97;;;;;;;;;;5013315;28;20481;-78
2022/11/27 03:31:46;;;;;;;36.50;15.63;;;;;;;;;;5030762;28;20018;-78
2022/11/27 03:34:12;;;;;;;39.93;16.57;;;;;;;;;;5030522;28;20044;-78
2022/11/27 03:36:37;;;;;;;34.07;15.80;;;;;;;;;;5030832;28;20033;-78
2022/11/27 03:39:04;;;;;;;38.67;15.80;;;;;;;;;;5012693;28;20025;-78
2022/11/27 03:42:06;;;;;;;33.50;16.93;;;;;;;;;;5030641;28;20091;-78
2022/11/27 03:44:40;;;;;;;33.25;15.43;;;;;;;;;;5030573;28;20064;-78
2022/11/27 03:47:18;;;;;;;35.60;17.83;;;;;;;;;;5012347;28;20037;-78
2022/11/27 03:50:14;;;;;;;39.87;16.90;;;;;;;;;;5012501;28;20068;-79
2022/11/27 03:53:02;;;;;;;32.87;14.13;;;;;;;;;;5012564;28;20036;-79
2022/11/27 03:55:33;;;;;;;36.00;16.00;;;;;;;;;;5012606;28;20025;-79
2022/11/27 03:58:07;;;;;;;32.60;15.17;;;;;;;;;;5012583;28;20029;-78
2022/11/27 04:00:38;;;;;;;35.47;16.07;;;;;;;;;;5012757;28;20029;-79
2022/11/27 04:03:03;;;;;;;31.00;15.43;;;;;;;;;;4996867;28;20036;-78
2022/11/27 04:05:29;;;;;;;39.13;15.23;;;;;;;;;;5012550;28;20038;-78
2022/11/27 04:07:54;;;;;;;35.60;15.17;;;;;;;;;;5013097;28;20027;-77
2022/11/27 04:10:20;;;;;;;34.53;15.00;;;;;;;;;;5012846;28;20020;-79
2022/11/27 04:12:45;;;;;;;36.73;16.00;;;;;;;;;;5031570;28;20179;-79
2022/11/27 04:15:12;;;;;;;31.77;13.97;;;;;;;;;;5032798;28;20037;-77
2022/11/27 04:17:37;;;;;;;36.37;16.73;;;;;;;;;;5016162;28;20029;-79
2022/11/27 04:20:04;;;;;;;31.67;14.70;;;;;;;;;;5015264;28;20136;-78
2022/11/27 04:22:29;;;;;;;34.30;14.87;;;;;;;;;;5015818;28;20036;-78
2022/11/27 04:24:55;;;;;;;29.90;14.50;;;;;;;;;;5031336;28;20026;-78
2022/11/27 04:27:20;;;;;;;33.80;14.70;;;;;;;;;;5034269;28;20057;-78
2022/11/27 04:29:46;;;;;;;41.53;16.00;;;;;;;;;;5016881;28;20021;-78
2022/11/27 04:32:11;;;;;;;28.77;13.30;;;;;;;;;;5016109;28;20355;-78
2022/11/27 04:34:37;;;;;;;27.53;14.17;;;;;;;;;;5016367;28;20492;-79
2022/11/27 04:37:02;;;;;;;32.70;14.37;;;;;;;;;;5033989;28;20086;-78
2022/11/27 04:39:28;;;;;;;35.30;13.87;;;;;;;;;;5032745;28;20045;-79
2022/11/27 04:41:53;;;;;;;32.23;13.47;;;;;;;;;;5034325;28;20040;-79
2022/11/27 04:44:21;;;;;;;32.60;14.67;;;;;;;;;;5017040;28;20483;-79
2022/11/27 04:46:47;;;;;;;34.00;14.50;;;;;;;;;;5016807;28;20102;-79
2022/11/27 04:49:13;;;;;;;30.80;13.10;;;;;;;;;;5033785;28;20125;-79
2022/11/27 04:51:38;;;;;;;35.50;14.27;;;;;;;;;;5033876;28;20021;-79
2022/11/27 04:54:04;;;;;;;23.93;12.37;;;;;;;;;;5015750;28;20041;-79
2022/11/27 04:56:29;;;;;;;30.93;12.43;;;;;;;;;;5033636;28;20111;-79
2022/11/27 04:58:55;;;;;;;29.50;13.87;;;;;;;;;;5015409;28;20018;-80
2022/11/27 05:01:20;;;;;;;25.70;12.90;;;;;;;;;;5033455;28;20087;-80
2022/11/27 05:03:47;;;;;;;26.60;12.00;;;;;;;;;;5015313;28;20520;-77
2022/11/27 05:06:12;;;;;;;27.40;11.87;;;;;;;;;;5014926;28;20045;-79
2022/11/27 05:08:38;;;;;;;27.20;11.50;;;;;;;;;;5033248;28;20032;-78
2022/11/27 05:11:11;;;;;;;29.07;12.73;;;;;;;;;;5033262;28;20013;-80
2022/11/27 05:13:36;;;;;;;29.40;12.20;;;;;;;;;;5015360;28;20057;-78
2022/11/27 05:16:02;;;;;;;31.23;11.87;;;;;;;;;;5033141;28;20060;-78
2022/11/27 05:18:28;;;;;;;25.53;11.20;;;;;;;;;;5015000;28;20048;-78
2022/11/27 05:21:05;;;;;;;31.30;12.20;;;;;;;;;;5014965;28;20049;-78
2022/11/27 05:23:32;;;;;;;25.50;11.67;;;;;;;;;;5015187;28;20385;-79
2022/11/27 05:25:58;;;;;;;29.47;12.10;;;;;;;;;;5015046;28;20025;-79
2022/11/27 05:28:24;;;;;;;22.60;11.07;;;;;;;;;;5031480;28;20029;-79
2022/11/27 05:30:49;;;;;;;27.37;12.37;;;;;;;;;;5015185;28;20022;-79
2022/11/27 05:33:16;;;;;;;28.73;11.00;;;;;;;;;;5014740;28;20113;-77
2022/11/27 05:35:42;;;;;;;23.97;11.00;;;;;;;;;;5014911;28;20033;-79
2022/11/27 05:38:08;;;;;;;26.47;10.93;;;;;;;;;;5014956;28;20029;-78
2022/11/27 05:40:34;;;;;;;25.40;11.03;;;;;;;;;;5031776;28;20437;-78
2022/11/27 05:43:00;;;;;;;27.50;11.63;;;;;;;;;;5015066;28;20032;-79
2022/11/27 05:45:25;;;;;;;30.57;11.57;;;;;;;;;;5015143;28;20087;-79
2022/11/27 05:47:51;;;;;;;29.80;11.43;;;;;;;;;;5015650;28;20029;-79
2022/11/27 05:50:17;;;;;;;31.50;11.70;;;;;;;;;;5016008;28;20028;-79
2022/11/27 05:52:42;;;;;;;25.17;10.87;;;;;;;;;;5036621;28;20021;-79
2022/11/27 05:55:08;;;;;;;29.57;11.83;;;;;;;;;;5036102;28;20489;-79
2022/11/27 05:57:34;;;;;;;26.83;12.27;;;;;;;;;;5015772;28;20032;-77
2022/11/27 05:59:59;;;;;;;20.40;10.73;;;;;;;;;;5032456;28;20048;-78
2022/11/27 06:02:25;;;;;;;27.77;11.07;;;;;;;;;;5032703;28;20033;-78
2022/11/27 06:04:51;;;;;;;25.73;10.70;;;;;;;;;;5014429;28;20143;-78
2022/11/27 06:07:17;;;;;;;29.13;12.20;;;;;;;;;;5014591;28;20068;-78
2022/11/27 06:09:43;;;;;;;26.47;11.23;;;;;;;;;;5014709;28;20116;-78
2022/11/27 06:12:08;;;;;;;25.73;11.07;;;;;;;;;;5032266;28;20109;-79
2022/11/27 06:14:34;;;;;;;30.67;11.33;;;;;;;;;;5014095;28;20032;-79
2022/11/27 06:17:01;;;;;;;26.90;11.53;;;;;;;;;;5030689;28;20029;-78
2022/11/27 06:19:27;;;;;;;21.20;9.97;;;;;;;;;;5014049;28;20048;-77
2022/11/27 06:21:52;;;;;;;33.27;12.43;;;;;;;;;;5031949;28;20461;-78
2022/11/27 06:24:18;;;;;;;35.77;12.37;;;;;;;;;;5030304;28;20040;-78
2022/11/27 06:26:43;;;;;;;26.97;10.40;;;;;;;;;;5026327;28;20048;-79
2022/11/27 06:29:09;;;;;;;26.90;10.67;;;;;;;;;;5014220;28;20029;-79
2022/11/27 06:31:35;;;;;;;29.07;11.60;;;;;;;;;;5032110;28;20017;-79
2022/11/27 06:34:01;;;;;;;26.17;10.13;;;;;;;;;;5014010;28;20030;-79
2022/11/27 06:36:34;;;;;;;29.93;11.43;;;;;;;;;;5014061;28;20029;-78
2022/11/27 06:39:01;;;;;;;30.70;11.63;;;;;;;;;;5014074;28;20025;-79
2022/11/27 06:41:27;;;;;;;24.57;11.97;;;;;;;;;;5013739;28;20025;-78
2022/11/27 06:43:54;;;;;;;29.80;11.40;;;;;;;;;;5031880;28;20026;-79
2022/11/27 06:46:21;;;;;;;27.77;11.40;;;;;;;;;;5013917;28;20105;-78
2022/11/27 06:48:48;;;;;;;28.90;11.73;;;;;;;;;;5030956;28;20048;-79
2022/11/27 06:51:16;;;;;;;23.37;10.30;;;;;;;;;;5013955;28;20021;-77
2022/11/27 06:53:43;;;;;;;27.27;11.57;;;;;;;;;;5033369;28;20033;-78
2022/11/27 06:56:11;;;;;;;25.70;10.90;;;;;;;;;;5014780;28;20053;-78
2022/11/27 06:58:37;;;;;;;29.93;11.37;;;;;;;;;;5031837;28;20052;-79
2022/11/27 07:01:06;;;;;;;27.33;11.07;;;;;;;;;;5031469;28;20029;-79
2022/11/27 07:03:31;;;;;;;26.43;11.00;;;;;;;;;;5013473;28;20450;-77
2022/11/27 07:06:02;;;;;;;27.90;10.40;;;;;;;;;;5013167;28;20045;-78
2022/11/27 07:08:28;;;;;;;25.93;10.13;;;;;;;;;;5013548;28;20355;-78
2022/11/27 07:11:03;;;;;;;24.60;10.53;;;;;;;;;;5013582;28;20116;-78
2022/11/27 07:13:30;;;;;;;34.93;15.63;;;;;;;;;;5013201;28;20032;-78
2022/11/27 07:16:04;;;;;;;25.63;12.90;;;;;;;;;;5031207;28;20029;-79
2022/11/27 07:18:34;;;;;;;24.53;10.87;;;;;;;;;;5013031;28;20025;-79
2022/11/27 07:20:59;;;;;;;22.20;10.53;;;;;;;;;;5030545;28;20030;-79
2022/11/27 07:23:25;;;;;;;26.37;11.33;;;;;;;;;;5012938;28;20155;-78
2022/11/27 07:25:50;;;;;;;21.03;9.87;;;;;;;;;;5009707;28;20366;-77
2022/11/27 07:28:16;;;;;;;27.93;12.60;;;;;;;;;;5026817;28;20029;-78
2022/11/27 07:30:41;;;;;;;23.23;9.60;;;;;;;;;;5012263;28;20107;-79
2022/11/27 07:33:07;;;;;;;31.57;10.97;;;;;;;;;;5030188;28;20041;-78
2022/11/27 07:35:32;;;;;;;19.63;9.63;;;;;;;;;;5012598;28;20025;-78
2022/11/27 07:37:58;;;;;;;24.73;10.77;;;;;;;;;;5029093;28;20025;-79
2022/11/27 07:40:23;;;;;;;27.37;10.63;;;;;;;;;;5012414;28;20021;-79
2022/11/27 07:42:49;;;;;;;28.03;10.07;;;;;;;;;;5028978;28;20051;-79
2022/11/27 07:45:14;;;;;;;25.33;9.87;;;;;;;;;;5030447;28;20026;-79
2022/11/27 07:47:40;;;;;;;21.47;10.33;;;;;;;;;;5012479;28;20088;-79
2022/11/27 07:50:07;;;;;;;25.83;10.13;;;;;;;;;;5028886;28;20088;-80
2022/11/27 07:52:37;;;;;;;24.30;9.57;;;;;;;;;;5012696;28;20433;-79
2022/11/27 07:55:03;;;;;;;21.47;10.00;;;;;;;;;;5029134;28;20060;-79
2022/11/27 07:57:29;;;;;;;23.93;9.53;;;;;;;;;;5030183;28;20037;-79
2022/11/27 07:59:54;;;;;;;28.43;11.13;;;;;;;;;;5011326;28;20028;-78
2022/11/27 08:02:20;;;;;;;24.53;10.67;;;;;;;;;;5011855;28;20454;-79
2022/11/27 08:04:46;;;;;;;28.17;10.47;;;;;;;;;;5012396;28;20049;-79
2022/11/27 08:07:11;;;;;;;22.27;10.00;;;;;;;;;;5030042;28;20477;-78
2022/11/27 08:09:38;;;;;;;23.27;10.23;;;;;;;;;;5012420;28;20025;-79
2022/11/27 08:12:05;;;;;;;22.77;9.63;;;;;;;;;;5030331;28;20520;-80
2022/11/27 08:14:32;;;;;;;27.97;10.07;;;;;;;;;;5012468;28;20025;-78
2022/11/27 08:16:57;;;;;;;26.63;9.80;;;;;;;;;;5030184;28;20029;-79
2022/11/27 08:19:24;;;;;;;23.50;9.53;;;;;;;;;;5030035;28;20064;-79
2022/11/27 08:21:50;;;;;;;24.13;10.73;;;;;;;;;;5012917;28;20022;-79
2022/11/27 08:24:15;;;;;;;22.60;9.80;;;;;;;;;;5029217;28;20086;-80
2022/11/27 08:26:41;;;;;;;23.77;10.37;;;;;;;;;;5012588;28;20183;-80
2022/11/27 08:29:12;;;;;;;21.83;10.30;;;;;;;;;;5012154;28;20025;-79
2022/11/27 08:31:37;;;;;;;28.30;9.63;;;;;;;;;;5030374;28;20021;-79
2022/11/27 08:34:03;;;;;;;23.93;9.97;;;;;;;;;;5012235;28;20033;-78
2022/11/27 08:36:28;;;;;;;36.77;10.00;;;;;;;;;;5029877;28;20036;-78
2022/11/27 08:38:55;;;;;;;25.37;11.17;;;;;;;;;;5030109;28;20060;-79
2022/11/27 08:41:21;;;;;;;27.03;10.50;;;;;;;;;;5029710;28;20049;-79
2022/11/27 08:43:46;;;;;;;20.27;9.77;;;;;;;;;;5012684;28;20116;-79
2022/11/27 08:46:12;;;;;;;24.17;10.13;;;;;;;;;;5012351;28;20170;-79
2022/11/27 08:48:38;;;;;;;26.53;10.70;;;;;;;;;;5012397;28;20049;-78
2022/11/27 08:51:09;;;;;;;22.33;11.30;;;;;;;;;;5030229;28;20025;-79
2022/11/27 08:53:36;;;;;;;26.02;11.02;;;;;;;;;;5012612;28;20025;-79
2022/11/27 08:56:12;;;;;;;25.57;11.13;;;;;;;;;;5013037;28;20393;-80
2022/11/27 08:58:39;;;;;;;26.10;10.50;;;;;;;;;;5030586;28;20025;-78
2022/11/27 09:01:15;;;;;;;22.73;9.73;;;;;;;;;;5012147;28;20044;-79
2022/11/27 09:03:40;;;;;;;31.03;11.27;;;;;;;;;;5011905;28;20083;-80
2022/11/27 09:06:10;;;;;;;24.80;12.30;;;;;;;;;;5029828;28;20132;-80
2022/11/27 09:08:37;;;;;;;26.50;11.07;;;;;;;;;;5030767;28;20036;-79
2022/11/27 09:11:05;;;;;;;27.27;12.27;;;;;;;;;;5013673;28;20024;-80
2022/11/27 09:13:31;;;;;;;25.07;11.87;;;;;;;;;;5015353;28;20029;-80
2022/11/27 09:15:57;;;;;;;33.13;11.77;;;;;;;;;;5015155;28;20448;-78
2022/11/27 09:18:23;;;;;;;25.97;11.97;;;;;;;;;;5033050;28;20045;-78
2022/11/27 09:20:56;;;;;;;24.77;11.90;;;;;;;;;;5015360;28;20458;-80
2022/11/27 09:23:22;;;;;;;30.73;13.13;;;;;;;;;;5015406;28;20033;-80
2022/11/27 09:25:48;;;;;;;30.00;12.70;;;;;;;;;;5033692;28;20029;-80
2022/11/27 09:28:14;;;;;;;25.93;11.93;;;;;;;;;;5016001;28;20136;-78
2022/11/27 09:30:40;;;;;;;28.77;12.30;;;;;;;;;;5020831;28;20032;-80
2022/11/27 09:33:06;;;;;;;24.27;10.03;;;;;;;;;;5022487;28;20029;-80
2022/11/27 09:35:31;;;;;;;29.57;11.97;;;;;;;;;;5036225;28;20509;-78
2022/11/27 09:37:57;;;;;;;28.00;11.57;;;;;;;;;;5018225;28;20079;-78
2022/11/27 09:40:23;;;;;;;32.37;12.60;;;;;;;;;;5037098;28;20409;-80
2022/11/27 09:43:10;;;;;;;23.67;11.03;;;;;;;;;;5035830;28;20029;-79
2022/11/27 09:45:47;;;;;;;26.20;10.87;;;;;;;;;;5015764;28;20029;-80
2022/11/27 09:48:21;;;;;;;31.97;12.63;;;;;;;;;;5015244;28;20025;-80
2022/11/27 09:50:50;;;;;;;35.20;12.90;;;;;;;;;;5033216;28;20013;-79
2022/11/27 09:53:20;;;;;;;25.47;12.23;;;;;;;;;;5015438;28;20025;-78
2022/11/27 09:55:50;;;;;;;34.17;14.77;;;;;;;;;;5033434;28;20029;-79
2022/11/27 09:58:34;;;;;;;35.97;13.97;;;;;;;;;;5015621;28;20033;-79
2022/11/27 10:00:59;;;;;;;32.90;13.97;;;;;;;;;;5015701;28;20025;-79
2022/11/27 10:03:26;;;;;;;29.43;13.87;;;;;;;;;;5033033;28;20333;-80
2022/11/27 10:06:29;;;;;;;28.20;13.50;;;;;;;;;;5032359;28;20065;-78
2022/11/27 10:09:23;;;;;;;36.43;13.33;;;;;;;;;;5014655;28;20069;-79
2022/11/27 10:12:19;;;;;;;39.07;13.47;;;;;;;;;;5031944;28;20033;-79
2022/11/27 10:15:16;;;;;;;29.73;12.33;;;;;;;;;;5014074;28;20171;-79
2022/11/27 10:17:59;;;;;;;30.07;12.83;;;;;;;;;;5032399;28;20517;-80
2022/11/27 10:20:28;;;;;;;26.90;12.87;;;;;;;;;;5014026;28;20029;-81
2022/11/27 10:22:59;;;;;;;31.07;13.53;;;;;;;;;;5030771;28;20033;-79
2022/11/27 10:25:43;;;;;;;29.83;14.07;;;;;;;;;;5031959;28;20116;-80
2022/11/27 10:28:09;;;;;;;31.33;14.63;;;;;;;;;;5012095;28;20084;-79
2022/11/27 10:31:07;;;;;;;32.27;14.73;;;;;;;;;;5010883;28;20141;-81
2022/11/27 10:33:42;;;;;;;30.20;12.53;;;;;;;;;;4998999;28;20033;-79
2022/11/27 10:36:18;;;;;;;35.47;13.83;;;;;;;;;;5011902;28;20030;-80
2022/11/27 10:38:45;;;;;;;33.47;13.17;;;;;;;;;;5012602;28;20101;-81
2022/11/27 10:41:15;;;;;;;31.40;12.53;;;;;;;;;;5011945;28;20054;-80
2022/11/27 10:43:41;;;;;;;33.87;13.47;;;;;;;;;;5012064;28;20489;-80
2022/11/27 10:46:12;;;;;;;32.97;12.60;;;;;;;;;;5011838;28;20160;-79
2022/11/27 10:48:38;;;;;;;29.35;12.98;;;;;;;;;;5012273;28;20034;-80
2022/11/27 10:51:20;;;;;;;32.63;13.00;;;;;;;;;;5012421;28;20080;-79
2022/11/27 10:53:49;;;;;;;;;;;;;;;;;;5012871;28;20014;-79
2022/11/27 10:56:30;;;;;;;32.40;14.97;;;;;;;;;;5012147;28;19944;-80
2022/11/27 10:59:01;;;;;;;33.10;13.97;;;;;;;;;;5013813;28;20025;-81
2022/11/27 11:01:39;;;;;;;35.92;14.35;;;;;;;;;;4993893;28;20054;-81
2022/11/27 11:04:06;;;;;;;29.17;13.67;;;;;;;;;;5011645;28;20038;-79
2022/11/27 11:06:38;;;;;;;31.23;14.17;;;;;;;;;;5011474;28;20072;-79
2022/11/27 11:09:17;;;;;;;30.13;13.82;;;;;;;;;;4994132;28;20032;-80
2022/11/27 11:11:43;;;;;;;31.53;14.13;;;;;;;;;;5011607;28;20106;-80
2022/11/27 11:14:22;;;;;;;31.40;14.10;;;;;;;;;;4993906;28;20125;-80
2022/11/27 11:16:49;;;;;;;40.93;18.60;;;;;;;;;;5010999;28;20120;-80
2022/11/27 11:19:22;;;;;;;36.07;15.13;;;;;;;;;;5010000;28;20026;-79
2022/11/27 11:21:48;;;;;;;39.33;17.10;;;;;;;;;;4993637;28;20486;-79
2022/11/27 11:24:30;;;;;;;36.30;14.73;;;;;;;;;;5010224;28;20057;-80
2022/11/27 11:27:00;;;;;;;38.77;15.90;;;;;;;;;;5005265;28;20029;-78
2022/11/27 11:29:34;;;;;;;34.73;15.27;;;;;;;;;;5030996;28;20029;-80
2022/11/27 11:32:13;;;;;;;36.23;16.13;;;;;;;;;;5030624;28;20044;-80
2022/11/27 11:34:46;;;;;;;34.20;15.30;;;;;;;;;;5012724;28;20109;-78
2022/11/27 11:37:31;;;;;;;36.53;15.63;;;;;;;;;;5013348;28;20116;-79
2022/11/27 11:40:08;;;;;;;34.90;14.60;;;;;;;;;;5013289;28;20036;-80
2022/11/27 11:42:37;;;;;;;32.97;14.90;;;;;;;;;;5030402;28;20036;-79
2022/11/27 11:45:17;;;;;;;32.97;15.23;;;;;;;;;;5030514;28;20318;-80
2022/11/27 11:48:14;;;;;;;34.27;15.50;;;;;;;;;;5014251;28;20030;-79
2022/11/27 11:50:54;;;;;;;40.63;16.80;;;;;;;;;;5029818;28;20033;-78
2022/11/27 11:53:35;;;;;;;35.37;14.40;;;;;;;;;;5012004;28;20033;-79
2022/11/27 11:56:19;;;;;;;31.67;15.60;;;;;;;;;;5012339;28;20079;-79
2022/11/27 11:58:47;;;;;;;34.40;14.23;;;;;;;;;;5013597;28;20485;-78
2022/11/27 12:01:42;;;;;;;40.80;16.10;;;;;;;;;;5012614;28;20128;-80
2022/11/27 12:04:13;;;;;;;35.17;15.73;;;;;;;;;;5030735;28;20109;-79
2022/11/27 12:07:15;;;;;;;31.15;15.15;;;;;;;;;;5012749;28;20496;-79
2022/11/27 12:10:01;;;;;;;35.50;15.80;;;;;;;;;;5011959;28;20033;-79
2022/11/27 12:12:54;;;;;;;31.30;14.97;;;;;;;;;;4991708;28;20048;-79
2022/11/27 12:15:29;;;;;;;38.20;16.20;;;;;;;;;;5012090;28;20048;-80
2022/11/27 12:18:00;;;;;;;35.50;14.57;;;;;;;;;;5012397;28;20037;-79
2022/11/27 12:21:00;;;;;;;32.20;15.60;;;;;;;;;;5012234;28;20037;-78
2022/11/27 12:24:05;;;;;;;33.93;15.87;;;;;;;;;;5009766;28;20402;-79
2022/11/27 12:27:04;;;;;;;31.60;15.00;;;;;;;;;;5011920;28;20026;-78
2022/11/27 12:29:51;;;;;;;34.20;15.43;;;;;;;;;;5011896;28;20033;-78
2022/11/27 12:32:44;;;;;;;27.57;15.17;;;;;;;;;;5011773;28;20064;-79
2022/11/27 12:35:58;;;;;;;31.43;14.77;;;;;;;;;;5012040;28;20037;-79
2022/11/27 12:39:16;;;;;;;33.13;16.07;;;;;;;;;;4953237;28;20041;-78
2022/11/27 12:41:44;;;;;;;31.77;16.37;;;;;;;;;;4915915;28;20051;-78
2022/11/27 12:44:34;;;;;;;32.57;14.97;;;;;;;;;;5024047;28;20037;-80
2022/11/27 12:47:20;;;;;;;33.30;14.53;;;;;;;;;;5033343;28;20053;-79
2022/11/27 12:49:57;;;;;;;36.93;14.83;;;;;;;;;;5032727;28;20057;-77
2022/11/27 12:52:29;;;;;;;33.90;15.63;;;;;;;;;;5015676;28;20485;-79
2022/11/27 12:55:17;;;;;;;38.95;15.10;;;;;;;;;;5034372;28;20030;-78
2022/11/27 12:57:55;;;;;;;26.83;13.83;;;;;;;;;;5017343;28;20038;-77
2022/11/27 13:00:24;;;;;;;31.67;13.67;;;;;;;;;;5017285;28;20036;-78
2022/11/27 13:03:17;;;;;;;32.90;14.97;;;;;;;;;;5034295;28;20156;-78
2022/11/27 13:05:46;;;;;;;31.43;14.10;;;;;;;;;;5034078;28;20073;-79
2022/11/27 13:08:27;;;;;;;30.73;13.93;;;;;;;;;;5016400;28;20493;-79
2022/11/27 13:10:59;;;;;;;36.05;14.75;;;;;;;;;;5018554;28;20029;-78
2022/11/27 13:13:48;;;;;;;27.63;13.60;;;;;;;;;;5036365;28;20112;-78
2022/11/27 13:16:18;;;;;;;30.13;13.07;;;;;;;;;;5015599;28;20029;-79
2022/11/27 13:19:04;;;;;;;37.47;14.83;;;;;;;;;;5016618;28;20053;-80
2022/11/27 13:21:32;;;;;;;28.17;14.03;;;;;;;;;;5015960;28;20030;-79
2022/11/27 13:24:02;;;;;;;25.13;13.03;;;;;;;;;;5015613;28;20027;-78
2022/11/27 13:26:35;;;;;;;34.27;15.97;;;;;;;;;;5032750;28;20017;-78
2022/11/27 13:29:06;;;;;;;35.07;15.77;;;;;;;;;;5032513;28;20163;-78
2022/11/27 13:31:36;;;;;;;32.73;14.27;;;;;;;;;;5014887;28;20048;-78
2022/11/27 13:34:06;;;;;;;31.83;14.87;;;;;;;;;;5015029;28;20133;-79
2022/11/27 13:36:37;;;;;;;29.67;14.20;;;;;;;;;;5014528;28;20071;-79
2022/11/27 13:39:03;;;;;;;27.15;15.43;;;;;;;;;;5014862;28;20033;-80
2022/11/27 13:41:37;;;;;;;44.43;15.20;;;;;;;;;;5032147;28;20532;-78
2022/11/27 13:44:03;;;;;;;29.37;14.97;;;;;;;;;;5014673;28;20094;-78
2022/11/27 13:46:39;;;;;;;40.87;15.60;;;;;;;;;;5032427;28;20025;-77
2022/11/27 13:49:05;;;;;;;32.03;14.53;;;;;;;;;;5032349;28;20036;-79
2022/11/27 13:51:32;;;;;;;32.17;14.67;;;;;;;;;;5014250;28;20021;-79
2022/11/27 13:54:11;;;;;;;26.77;14.23;;;;;;;;;;5032076;28;20434;-79
2022/11/27 13:56:38;;;;;;;32.90;16.17;;;;;;;;;;5014101;28;20064;-79
2022/11/27 13:59:21;;;;;;;36.57;15.83;;;;;;;;;;5032493;28;20088;-79
2022/11/27 14:02:03;;;;;;;32.30;14.87;;;;;;;;;;5014622;28;20025;-79
2022/11/27 14:04:31;;;;;;;29.85;14.80;;;;;;;;;;5014159;28;20486;-79
2022/11/27 14:07:06;;;;;;;35.53;15.50;;;;;;;;;;5014333;28;20033;-79
2022/11/27 14:09:52;;;;;;;34.37;15.57;;;;;;;;;;5014393;28;20044;-80
2022/11/27 14:12:30;;;;;;;42.30;15.40;;;;;;;;;;5014451;28;20120;-80
2022/11/27 14:15:16;;;;;;;39.47;17.67;;;;;;;;;;5014340;28;20474;-79
2022/11/27 14:17:44;;;;;;;35.77;16.63;;;;;;;;;;5013559;28;20164;-80
2022/11/27 14:20:10;;;;;;;34.77;15.40;;;;;;;;;;5031927;28;20026;-79
2022/11/27 14:22:53;;;;;;;42.00;18.30;;;;;;;;;;5014494;28;20022;-79
2022/11/27 14:25:28;;;;;;;44.17;17.57;;;;;;;;;;5032123;28;20032;-78
2022/11/27 14:27:59;;;;;;;35.43;17.17;;;;;;;;;;4994711;28;20484;-78
2022/11/27 14:30:45;;;;;;;47.00;19.97;;;;;;;;;;5012808;28;20100;-79
2022/11/27 14:33:22;;;;;;;39.50;18.50;;;;;;;;;;4985496;28;20030;-80
2022/11/27 14:35:50;;;;;;;43.13;18.10;;;;;;;;;;5011743;28;20036;-79
2022/11/27 14:38:16;;;;;;;46.57;18.67;;;;;;;;;;4995035;28;20053;-79
2022/11/27 14:40:42;;;;;;;49.00;19.70;;;;;;;;;;4993914;28;20131;-79
2022/11/27 14:43:16;;;;;;;41.67;19.87;;;;;;;;;;5011869;28;20041;-80